createdAt,value
2018-11-20T00:00:00.252Z,65.77
2018-11-20T00:02:53.926Z,66.01
2018-11-20T00:06:02.848Z,65.99
2018-11-20T00:08:53.110Z,65.90
2018-11-20T00:11:47.522Z,66.02
2018-11-20T00:14:46.513Z,65.56
2018-11-20T00:17:34.176Z,66.06
2018-11-20T00:20:30.288Z,65.86
2018-11-20T00:23:23.865Z,65.82
2018-11-20T00:26:15.633Z,65.87
2018-11-20T00:28:58.087Z,66.03
2018-11-20T00:32:00.459Z,65.92
2018-11-20T00:34:52.734Z,65.96
2018-11-20T00:37:57.623Z,66.31
2018-11-20T00:40:50.079Z,66.48
2018-11-20T00:43:55.043Z,66.56
2018-11-20T00:46:57.576Z,66.68
2018-11-20T00:49:52.180Z,67.05
2018-11-20T00:52:46.466Z,67.14
2018-11-20T00:56:21.204Z,66.91
2018-11-20T00:59:22.967Z,67.24
2018-11-20T01:02:14.251Z,67.20
2018-11-20T01:05:19.276Z,67.40
2018-11-20T01:08:18.965Z,67.40
2018-11-20T01:11:10.063Z,67.39
2018-11-20T01:14:04.767Z,67.61
2018-11-20T01:17:00.793Z,67.53
2018-11-20T01:19:57.212Z,67.21
2018-11-20T01:22:50.785Z,66.94
2018-11-20T01:25:43.018Z,66.51
2018-11-20T01:28:33.880Z,66.43
2018-11-20T01:31:29.748Z,66.45
2018-11-20T01:34:28.852Z,66.39
2018-11-20T01:37:25.688Z,66.21
2018-11-20T01:40:05.768Z,66.07
2018-11-20T01:43:14.480Z,66.15
2018-11-20T01:46:09.824Z,65.83
2018-11-20T01:48:52.939Z,66.13
2018-11-20T01:51:50.993Z,66.37
2018-11-20T01:55:02.195Z,66.67
2018-11-20T01:58:01.601Z,66.58
2018-11-20T02:00:53.841Z,66.63
2018-11-20T02:03:45.318Z,66.68
2018-11-20T02:06:44.565Z,66.53
2018-11-20T02:09:41.007Z,66.56
2018-11-20T02:12:47.568Z,65.77
2018-11-20T02:15:34.996Z,66.49
2018-11-20T02:18:33.686Z,65.99
2018-11-20T02:21:33.096Z,66.07
2018-11-20T02:24:23.687Z,65.72
2018-11-20T02:27:14.807Z,65.73
2018-11-20T02:30:11.140Z,65.94
2018-11-20T02:33:08.130Z,65.85
2018-11-20T02:36:11.245Z,65.92
2018-11-20T09:59:12.463Z,69.40
2018-11-20T10:02:11.103Z,69.34
2018-11-20T10:04:51.683Z,69.29
2018-11-20T10:07:59.265Z,69.42
2018-11-20T10:10:57.972Z,69.39
2018-11-20T10:14:03.289Z,69.04
2018-11-20T10:17:04.548Z,69.49
2018-11-20T10:19:56.009Z,69.11
2018-11-20T10:22:47.598Z,69.21
2018-11-20T10:25:41.210Z,69.13
2018-11-20T10:28:33.311Z,69.19
2018-11-20T10:31:37.406Z,69.28
2018-11-20T10:34:39.120Z,69.65
2018-11-20T10:37:25.733Z,69.62
2018-11-20T10:40:26.693Z,69.22
2018-11-20T10:43:37.192Z,68.92
2018-11-20T10:46:28.443Z,69.04
2018-11-20T10:49:39.092Z,68.85
2018-11-20T10:52:34.590Z,68.71
2018-11-20T10:55:41.927Z,68.67
2018-11-20T10:58:33.007Z,68.26
2018-11-20T11:01:40.726Z,68.39
2018-11-20T11:04:38.908Z,68.25
2018-11-20T11:07:29.791Z,68.09
2018-11-20T11:10:12.149Z,68.25
2018-11-20T11:13:04.434Z,67.91
2018-11-20T11:15:55.220Z,68.20
2018-11-20T11:18:52.279Z,68.07
2018-11-20T11:21:49.671Z,67.90
2018-11-20T11:24:57.003Z,68.14
2018-11-20T11:28:04.857Z,68.11
2018-11-20T11:31:03.255Z,68.30
2018-11-20T11:33:54.186Z,67.96
2018-11-20T11:36:42.470Z,68.02
2018-11-20T11:39:43.372Z,67.88
2018-11-20T11:42:34.014Z,67.72
2018-11-20T11:45:17.692Z,67.66
2018-11-20T11:48:14.034Z,67.84
2018-11-20T11:51:14.478Z,67.97
2018-11-20T11:54:06.912Z,68.14
2018-11-20T11:57:02.096Z,68.21
2018-11-20T11:59:53.946Z,67.88
2018-11-20T12:05:46.812Z,68.04
2018-11-20T12:08:57.079Z,67.87
2018-11-20T12:11:39.916Z,67.87
2018-11-20T12:14:40.742Z,68.25
2018-11-20T12:17:33.092Z,67.84
2018-11-20T12:20:24.021Z,68.04
2018-11-20T12:23:31.409Z,67.60
2018-11-20T12:26:25.377Z,67.80
2018-11-20T12:29:23.842Z,67.84
2018-11-20T12:32:26.647Z,67.81
2018-11-20T12:35:21.076Z,67.87
2018-11-20T12:38:09.998Z,67.48
2018-11-20T12:41:01.678Z,67.70
2018-11-20T12:43:54.850Z,67.71
2018-11-20T12:46:46.212Z,67.66
2018-11-20T12:49:54.029Z,68.34
2018-11-20T12:52:52.586Z,68.33
2018-11-20T12:55:43.534Z,68.62
2018-11-20T12:58:34.609Z,68.33
2018-11-20T13:01:24.746Z,68.26
2018-11-20T13:04:15.139Z,68.45
2018-11-20T13:07:13.261Z,68.31
2018-11-20T13:10:04.761Z,68.38
2018-11-20T13:12:56.597Z,68.54
2018-11-20T13:16:00.248Z,68.38
2018-11-20T13:18:54.216Z,68.64
2018-11-20T13:21:44.936Z,68.78
2018-11-20T13:24:37.240Z,68.90
2018-11-20T13:27:28.144Z,69.30
2018-11-20T13:30:19.178Z,69.55
2018-11-20T13:33:10.098Z,69.83
2018-11-20T13:36:01.629Z,70.33
2018-11-20T13:39:06.121Z,70.17
2018-11-20T13:41:57.613Z,70.67
2018-11-20T13:44:55.710Z,70.98
2018-11-20T13:47:46.310Z,71.57
2018-11-20T13:50:39.065Z,72.11
2018-11-20T13:53:36.881Z,73.19
2018-11-20T13:56:44.204Z,74.52
2018-11-20T13:59:36.169Z,75.70
2018-11-20T14:02:26.283Z,76.48
2018-11-20T14:05:22.311Z,77.73
2018-11-20T14:08:21.896Z,78.65
2018-11-20T14:11:14.869Z,79.73
2018-11-20T14:14:06.466Z,80.53
2018-11-20T14:16:57.433Z,81.15
2018-11-20T14:20:05.392Z,81.69
2018-11-20T14:23:04.074Z,82.28
2018-11-20T14:26:03.089Z,82.85
2018-11-20T14:28:50.505Z,83.17
2018-11-20T14:32:01.252Z,83.45
2018-11-20T14:35:02.244Z,83.63
2018-11-20T14:38:00.535Z,83.78
2018-11-20T14:40:51.120Z,83.87
2018-11-20T14:43:56.352Z,83.95
2018-11-20T14:46:47.472Z,84.03
2018-11-20T14:49:49.225Z,84.15
2018-11-20T14:52:51.304Z,84.15
2018-11-20T14:55:52.272Z,84.19
2018-11-20T15:01:26.169Z,84.73
2018-11-20T15:04:18.339Z,84.38
2018-11-20T15:07:19.385Z,84.41
2018-11-20T15:10:10.976Z,84.48
2018-11-20T15:13:04.293Z,84.54
2018-11-20T15:15:58.485Z,84.63
2018-11-20T15:19:13.250Z,84.67
2018-11-20T15:22:08.772Z,84.73
2018-11-20T15:25:03.961Z,84.82
2018-11-20T15:28:00.117Z,84.83
2018-11-20T15:30:58.310Z,84.89
2018-11-20T15:33:43.798Z,84.97
2018-11-20T15:36:33.569Z,85.01
2018-11-20T15:39:17.436Z,85.05
2018-11-20T15:42:13.933Z,85.08
2018-11-20T15:45:23.983Z,85.10
2018-11-20T15:48:24.855Z,85.14
2018-11-20T15:51:19.522Z,85.20
2018-11-20T15:54:21.602Z,85.22
2018-11-20T15:57:11.069Z,85.23
2018-11-20T16:00:03.239Z,85.22
2018-11-20T16:02:55.177Z,85.18
2018-11-20T16:05:46.880Z,85.12
2018-11-20T16:08:54.813Z,85.04
2018-11-20T16:11:47.375Z,84.96
2018-11-20T16:14:42.683Z,84.91
2018-11-20T16:17:41.099Z,84.83
2018-11-20T16:20:39.562Z,84.69
2018-11-20T16:23:34.986Z,84.51
2018-11-20T16:26:30.810Z,84.35
2018-11-20T16:29:27.864Z,84.26
2018-11-20T16:32:19.056Z,84.17
2018-11-20T16:35:00.653Z,84.09
2018-11-20T16:38:07.679Z,84.05
2018-11-20T16:41:06.049Z,84.04
2018-11-20T16:44:01.228Z,83.87
2018-11-20T16:46:56.950Z,83.72
2018-11-20T16:49:53.015Z,83.59
2018-11-20T16:52:52.579Z,83.59
2018-11-20T16:55:46.725Z,83.65
2018-11-20T16:58:42.606Z,83.58
2018-11-20T17:01:36.237Z,83.42
2018-11-20T17:04:28.514Z,83.33
2018-11-20T17:07:30.653Z,83.07
2018-11-20T17:10:17.407Z,83.00
2018-11-20T17:13:10.417Z,82.87
2018-11-20T17:15:59.202Z,82.62
2018-11-20T17:18:50.788Z,82.60
2018-11-20T17:21:41.418Z,82.21
2018-11-20T17:24:32.542Z,82.15
2018-11-20T17:27:24.244Z,82.10
2018-11-20T17:30:14.851Z,82.14
2018-11-20T17:33:07.704Z,81.96
2018-11-20T17:36:08.187Z,81.87
2018-11-20T17:38:59.341Z,81.88
2018-11-20T17:41:45.744Z,81.99
2018-11-20T17:44:38.613Z,81.49
2018-11-20T17:47:43.120Z,81.41
2018-11-20T17:50:27.369Z,81.45
2018-11-20T17:53:19.830Z,81.17
2018-11-20T17:56:16.876Z,81.42
2018-11-20T17:59:08.194Z,81.27
2018-11-20T18:01:59.103Z,81.05
2018-11-20T18:04:42.741Z,81.21
2018-11-20T18:07:45.343Z,80.84
2018-11-20T18:10:36.756Z,80.35
2018-11-20T18:13:18.071Z,80.06
2018-11-20T18:16:16.848Z,80.05
2018-11-20T18:19:04.684Z,80.23
2018-11-20T18:22:02.760Z,80.12
2018-11-20T18:24:57.627Z,80.15
2018-11-20T18:27:52.331Z,80.49
2018-11-20T18:30:44.336Z,80.67
2018-11-20T18:33:33.745Z,80.59
2018-11-20T18:36:21.176Z,80.09
2018-11-20T18:39:32.066Z,80.24
2018-11-20T18:42:24.592Z,80.05
2018-11-20T18:45:16.935Z,80.24
2018-11-20T18:48:10.509Z,79.99
2018-11-20T18:51:01.715Z,80.36
2018-11-20T18:53:53.038Z,80.20
2018-11-20T18:56:46.094Z,80.17
2018-11-20T18:59:56.984Z,80.05
2018-11-20T19:02:48.287Z,80.08
2018-11-20T19:05:35.803Z,79.48
2018-11-20T19:08:37.156Z,79.39
2018-11-20T19:11:42.404Z,79.75
2018-11-20T19:14:33.518Z,79.62
2018-11-20T19:17:31.617Z,79.67
2018-11-20T19:20:30.597Z,79.87
2018-11-20T19:23:29.214Z,79.83
2018-11-20T19:26:20.905Z,79.64
2018-11-20T19:29:24.961Z,80.03
2018-11-20T19:32:14.810Z,79.40
2018-11-20T19:35:10.418Z,79.30
2018-11-20T19:37:54.060Z,78.91
2018-11-20T19:41:01.238Z,79.37
2018-11-20T19:43:56.860Z,79.17
2018-11-20T19:46:52.203Z,78.96
2018-11-20T19:49:35.304Z,78.82
2018-11-20T19:52:26.511Z,78.75
2018-11-20T19:55:29.164Z,78.85
2018-11-20T19:58:24.306Z,78.61
2018-11-20T20:01:15.544Z,77.83
2018-11-20T20:04:04.496Z,78.44
2018-11-20T20:06:54.164Z,78.35
2018-11-20T20:09:45.326Z,78.65
2018-11-20T20:12:34.688Z,78.92
2018-11-20T20:15:35.729Z,78.64
2018-11-20T20:18:36.657Z,78.63
2018-11-20T20:21:29.187Z,78.39
2018-11-20T20:24:32.280Z,78.00
2018-11-20T20:27:23.493Z,78.62
2018-11-20T20:30:13.994Z,78.51
2018-11-20T20:33:17.945Z,78.41
2018-11-20T20:36:09.508Z,78.78
2018-11-20T20:39:17.539Z,78.63
2018-11-20T20:42:08.857Z,78.11
2018-11-20T20:45:09.888Z,78.29
2018-11-20T20:47:54.683Z,78.08
2018-11-20T20:50:55.890Z,78.16
2018-11-20T20:53:47.994Z,77.73
2018-11-20T20:56:42.601Z,78.02
2018-11-20T20:59:35.796Z,78.11
2018-11-20T21:02:31.052Z,78.01
2018-11-20T21:05:23.595Z,78.24
2018-11-20T21:08:15.220Z,78.17
2018-11-20T21:11:19.626Z,78.57
2018-11-20T21:14:19.107Z,78.37
2018-11-20T21:17:17.288Z,78.18
2018-11-20T21:20:18.759Z,78.31
2018-11-20T21:23:16.787Z,78.76
2018-11-20T21:26:04.104Z,78.80
2018-11-20T21:28:55.394Z,78.53
2018-11-20T21:32:02.893Z,78.74
2018-11-20T21:35:10.066Z,78.98
2018-11-20T21:38:01.115Z,79.05
2018-11-20T21:41:02.945Z,79.00
2018-11-20T21:43:47.789Z,79.03
2018-11-20T21:46:55.274Z,79.05
2018-11-20T21:49:57.383Z,78.99
2018-11-20T21:52:48.691Z,79.01
2018-11-20T21:55:47.385Z,78.94
2018-11-20T21:58:48.920Z,78.71
2018-11-20T22:01:41.483Z,78.74
2018-11-20T22:04:26.136Z,78.62
2018-11-20T22:07:34.043Z,78.18
2018-11-20T22:10:29.000Z,78.35
2018-11-20T22:13:19.891Z,78.39
2018-11-20T22:16:11.209Z,78.50
2018-11-20T22:19:02.809Z,78.54
2018-11-20T22:21:54.153Z,78.43
2018-11-20T22:24:58.738Z,78.71
2018-11-20T22:28:06.959Z,78.67
2018-11-20T22:30:52.364Z,79.06
2018-11-20T22:33:46.203Z,79.30
2018-11-20T22:36:40.968Z,79.39
2018-11-20T22:39:25.559Z,79.55
2018-11-20T22:42:23.220Z,79.37
2018-11-20T22:45:15.281Z,79.47
2018-11-20T22:48:22.972Z,79.64
2018-11-20T22:51:14.420Z,79.67
2018-11-20T22:54:12.954Z,79.62
2018-11-20T22:56:59.940Z,79.59
2018-11-20T22:59:54.942Z,79.61
2018-11-20T23:02:39.828Z,79.75
2018-11-20T23:05:22.690Z,79.53
2018-11-20T23:07:56.490Z,79.59
2018-11-20T23:10:29.681Z,79.61
2018-11-20T23:13:02.976Z,79.44
2018-11-20T23:15:35.842Z,79.47
2018-11-20T23:18:08.959Z,79.43
2018-11-20T23:20:41.454Z,79.19
2018-11-20T23:23:14.346Z,79.37
2018-11-20T23:25:47.602Z,79.06
2018-11-20T23:28:20.779Z,78.84
2018-11-20T23:30:53.299Z,78.92
2018-11-20T23:33:26.183Z,78.86
2018-11-20T23:35:59.079Z,78.93
2018-11-20T23:38:32.190Z,78.67
2018-11-20T23:41:05.036Z,78.64
2018-11-20T23:43:37.821Z,78.58
2018-11-20T23:46:11.009Z,78.65
2018-11-20T23:48:44.291Z,78.77
2018-11-20T23:51:17.600Z,78.43
2018-11-20T23:53:49.650Z,78.33
2018-11-20T23:56:22.770Z,78.36
2018-11-20T23:58:54.855Z,78.47
